Time;durP1;ratioP1;P1;durP2;ratioP2;P2;SDS_P1;SDS_P2;PMS_P1;PMS_P2;Temp;Humidity;BMP_temperature;BMP_pressure;BME280_temperature;BME280_humidity;BME280_pressure;Samples;Min_cycle;Max_cycle;Signal;HPM_P1;HPM_P2
2023/04/19 00:01:47;;;;;;;3.92;2.58;;;7.80;99.90;;;;;;5040882;28;20061;-84
2023/04/19 00:04:13;;;;;;;5.35;3.10;;;7.70;99.90;;;;;;5039967;28;20029;-83
2023/04/19 00:06:40;;;;;;;3.78;2.60;;;7.70;99.90;;;;;;5044217;28;20383;-84
2023/04/19 00:09:07;;;;;;;5.05;2.58;;;7.70;99.90;;;;;;5040420;28;20119;-83
2023/04/19 00:11:33;;;;;;;3.47;2.40;;;7.70;99.90;;;;;;5043057;28;20427;-84
2023/04/19 00:13:58;;;;;;;3.92;2.45;;;7.70;99.90;;;;;;5041731;28;20040;-84
2023/04/19 00:16:24;;;;;;;4.22;2.65;;;7.60;99.90;;;;;;5034333;28;20045;-84
2023/04/19 00:18:50;;;;;;;4.45;2.42;;;7.60;99.90;;;;;;5039105;28;20037;-84
2023/04/19 00:21:16;;;;;;;5.85;2.67;;;7.70;99.90;;;;;;5039338;28;20029;-84
2023/04/19 00:23:41;;;;;;;6.15;2.72;;;7.60;99.90;;;;;;5043021;28;20524;-84
2023/04/19 00:26:07;;;;;;;3.85;2.70;;;7.60;99.90;;;;;;5017983;28;20042;-83
2023/04/19 00:28:34;;;;;;;4.07;2.90;;;7.50;99.90;;;;;;5042444;28;20120;-84
2023/04/19 00:30:59;;;;;;;3.25;2.17;;;7.60;99.90;;;;;;5042238;28;20041;-84
2023/04/19 00:33:25;;;;;;;3.95;2.70;;;7.50;99.90;;;;;;5049033;28;20041;-84
2023/04/19 00:35:51;;;;;;;5.13;2.55;;;7.50;99.90;;;;;;5042411;28;20029;-83
2023/04/19 00:38:16;;;;;;;3.70;2.50;;;7.60;99.90;;;;;;5037499;28;20092;-84
2023/04/19 00:40:42;;;;;;;3.85;2.10;;;7.60;99.90;;;;;;5044219;28;20040;-84
2023/04/19 00:43:08;;;;;;;3.63;2.50;;;7.60;99.90;;;;;;5040251;28;20037;-83
2023/04/19 00:45:35;;;;;;;3.92;2.20;;;7.60;99.90;;;;;;5027815;28;20041;-84
2023/04/19 00:48:01;;;;;;;4.00;2.53;;;7.60;99.90;;;;;;5024630;28;20395;-84
2023/04/19 00:50:27;;;;;;;3.70;2.35;;;7.60;99.90;;;;;;5040543;28;20052;-83
2023/04/19 00:52:55;;;;;;;4.88;2.90;;;7.60;99.90;;;;;;5026956;28;20041;-84
2023/04/19 00:55:22;;;;;;;4.82;2.63;;;7.60;99.90;;;;;;5040942;28;20051;-84
2023/04/19 00:57:50;;;;;;;2.80;2.00;;;7.60;99.90;;;;;;5041612;28;20506;-84
2023/04/19 01:00:16;;;;;;;3.92;2.50;;;7.60;99.90;;;;;;5044334;28;20038;-83
2023/04/19 01:02:42;;;;;;;4.22;2.53;;;7.60;99.90;;;;;;5035176;28;20037;-84
2023/04/19 01:05:08;;;;;;;3.13;2.30;;;7.60;99.90;;;;;;5037584;28;20030;-84
2023/04/19 01:07:34;;;;;;;4.10;2.40;;;7.50;99.90;;;;;;5026393;28;20128;-84
2023/04/19 01:09:59;;;;;;;3.75;2.63;;;7.50;99.90;;;;;;5038530;28;20489;-83
2023/04/19 01:12:25;;;;;;;4.28;2.30;;;7.50;99.90;;;;;;5044131;28;20056;-84
2023/04/19 01:14:51;;;;;;;3.78;2.40;;;7.50;99.90;;;;;;5043422;28;20042;-83
2023/04/19 01:17:18;;;;;;;3.05;2.13;;;7.50;99.90;;;;;;5049923;28;20057;-84
2023/04/19 01:19:44;;;;;;;3.95;2.40;;;7.50;99.90;;;;;;5043032;28;20053;-84
2023/04/19 01:22:21;;;;;;;3.42;2.15;;;7.50;99.90;;;;;;5041901;28;20068;-84
2023/04/19 01:24:47;;;;;;;3.67;2.40;;;7.50;99.90;;;;;;5046844;28;20036;-84
2023/04/19 01:27:13;;;;;;;5.60;2.92;;;7.50;99.90;;;;;;5046461;28;20033;-84
2023/04/19 01:29:39;;;;;;;4.05;2.50;;;7.60;99.90;;;;;;5046088;28;20032;-84
2023/04/19 01:32:05;;;;;;;4.13;2.63;;;7.60;99.90;;;;;;5042959;28;20030;-84
2023/04/19 01:34:30;;;;;;;4.07;2.80;;;7.60;99.90;;;;;;5043501;28;20391;-84
2023/04/19 01:36:56;;;;;;;4.03;2.85;;;7.60;99.90;;;;;;5050766;28;20068;-84
2023/04/19 01:39:24;;;;;;;5.68;2.58;;;7.60;99.90;;;;;;5045188;28;20048;-85
2023/04/19 01:41:50;;;;;;;4.75;2.80;;;7.60;99.90;;;;;;5040709;28;21684;-84
2023/04/19 01:44:15;;;;;;;4.95;3.03;;;7.60;99.90;;;;;;5048324;28;20044;-84
2023/04/19 01:46:41;;;;;;;5.97;3.10;;;7.60;99.90;;;;;;5039814;28;20244;-84
2023/04/19 01:49:08;;;;;;;4.97;3.08;;;7.60;99.90;;;;;;5039265;28;20044;-84
2023/04/19 01:51:33;;;;;;;8.52;3.03;;;7.60;99.90;;;;;;5039188;28;20134;-84
2023/04/19 01:54:00;;;;;;;4.20;2.55;;;7.70;99.90;;;;;;5052123;28;20064;-83
2023/04/19 01:56:26;;;;;;;4.80;3.10;;;7.70;99.90;;;;;;5048636;28;20384;-84
2023/04/19 01:58:51;;;;;;;4.95;3.10;;;7.70;99.90;;;;;;5039759;28;20064;-84
2023/04/19 02:01:17;;;;;;;4.82;3.05;;;7.70;99.90;;;;;;5041655;28;20061;-84
2023/04/19 02:03:43;;;;;;;6.75;3.45;;;7.70;99.90;;;;;;5030746;28;20037;-84
2023/04/19 02:06:12;;;;;;;5.40;2.90;;;7.70;99.90;;;;;;5041910;28;20048;-84
2023/04/19 02:08:41;;;;;;;3.83;2.53;;;7.60;99.90;;;;;;5036978;28;20048;-83
2023/04/19 02:11:14;;;;;;;4.38;2.72;;;7.60;99.90;;;;;;5047492;28;20045;-84
2023/04/19 02:13:40;;;;;;;4.63;2.78;;;7.60;99.90;;;;;;5047368;28;20107;-83
2023/04/19 02:16:07;;;;;;;3.80;2.67;;;7.50;99.90;;;;;;5039323;28;20033;-84
2023/04/19 02:18:40;;;;;;;5.45;3.03;;;7.50;99.90;;;;;;5040428;28;20037;-83
2023/04/19 02:21:07;;;;;;;3.88;2.70;;;7.50;99.90;;;;;;5036594;28;20483;-84
2023/04/19 02:23:34;;;;;;;5.13;2.88;;;7.50;99.90;;;;;;5044789;28;20037;-84
2023/04/19 02:26:03;;;;;;;4.53;2.85;;;7.50;99.90;;;;;;5041068;28;20127;-84
2023/04/19 02:28:32;;;;;;;4.85;2.75;;;7.50;99.90;;;;;;5050890;28;20124;-83
2023/04/19 02:30:58;;;;;;;3.95;2.83;;;7.40;99.90;;;;;;5040396;28;20099;-83
2023/04/19 02:33:26;;;;;;;4.93;3.28;;;7.40;99.90;;;;;;5044531;28;20103;-84
2023/04/19 02:35:51;;;;;;;5.28;2.97;;;7.40;99.90;;;;;;5047800;28;20546;-83
2023/04/19 02:38:17;;;;;;;5.03;2.80;;;7.40;99.90;;;;;;5051680;28;20108;-83
2023/04/19 02:40:43;;;;;;;5.53;3.13;;;7.40;99.90;;;;;;5040220;28;20033;-83
2023/04/19 02:43:09;;;;;;;4.88;2.78;;;7.40;99.90;;;;;;5041404;28;20372;-83
2023/04/19 02:45:36;;;;;;;4.85;2.53;;;7.40;99.90;;;;;;5047565;28;20044;-84
2023/04/19 02:48:01;;;;;;;4.85;2.78;;;7.30;99.90;;;;;;5032686;28;20053;-83
2023/04/19 02:50:27;;;;;;;5.90;3.63;;;7.30;99.90;;;;;;5039802;28;20487;-83
2023/04/19 02:52:53;;;;;;;4.57;3.08;;;7.30;99.90;;;;;;5034158;28;20523;-84
2023/04/19 02:55:18;;;;;;;4.25;2.60;;;7.30;99.90;;;;;;5047267;28;20042;-84
2023/04/19 02:57:44;;;;;;;4.38;2.88;;;7.20;99.90;;;;;;5039405;28;21740;-83
2023/04/19 03:00:11;;;;;;;4.50;2.90;;;7.20;99.90;;;;;;5041788;28;20033;-84
2023/04/19 03:02:38;;;;;;;4.45;2.80;;;7.20;99.90;;;;;;5025704;28;20056;-84
2023/04/19 03:05:05;;;;;;;5.43;3.03;;;7.30;99.90;;;;;;5037288;28;20120;-84
2023/04/19 03:07:31;;;;;;;4.75;3.20;;;7.20;99.90;;;;;;5048634;28;20041;-84
2023/04/19 03:09:56;;;;;;;5.97;3.90;;;7.20;99.90;;;;;;5029984;28;20060;-84
2023/04/19 03:12:22;;;;;;;5.50;3.40;;;7.30;99.90;;;;;;5035064;28;20568;-84
2023/04/19 03:14:48;;;;;;;7.35;4.57;;;7.30;99.90;;;;;;5049196;28;20395;-83
2023/04/19 03:17:14;;;;;;;7.80;4.50;;;7.30;99.90;;;;;;5048677;28;20486;-83
2023/04/19 03:19:40;;;;;;;7.80;4.22;;;7.40;99.90;;;;;;5028723;28;20041;-83
2023/04/19 03:22:05;;;;;;;5.88;3.72;;;7.40;99.90;;;;;;5041310;28;20119;-83
2023/04/19 03:24:31;;;;;;;5.25;3.17;;;7.40;99.90;;;;;;5026054;28;21740;-83
2023/04/19 03:26:57;;;;;;;5.22;3.08;;;7.40;99.90;;;;;;5038993;28;20025;-84
2023/04/19 03:29:23;;;;;;;4.15;2.53;;;7.40;99.90;;;;;;5042108;28;20029;-83
2023/04/19 03:31:49;;;;;;;4.72;2.67;;;7.40;99.90;;;;;;5045965;28;20300;-83
2023/04/19 03:34:15;;;;;;;5.07;3.30;;;7.30;99.90;;;;;;5039959;28;20061;-84
2023/04/19 03:36:41;;;;;;;4.88;3.00;;;7.30;99.90;;;;;;5027405;28;20066;-83
2023/04/19 03:39:07;;;;;;;4.45;2.95;;;7.30;99.90;;;;;;5027682;28;20045;-83
2023/04/19 03:41:33;;;;;;;4.82;2.83;;;7.30;99.90;;;;;;5042089;28;20073;-84
2023/04/19 03:43:58;;;;;;;4.05;2.72;;;7.30;99.90;;;;;;5044303;28;20480;-83
2023/04/19 03:46:24;;;;;;;4.18;2.63;;;7.30;99.90;;;;;;5049619;28;20045;-84
2023/04/19 03:48:51;;;;;;;3.80;2.47;;;7.30;99.90;;;;;;5044025;28;20033;-84
2023/04/19 03:51:17;;;;;;;4.65;3.08;;;7.30;99.90;;;;;;5047743;28;20116;-84
2023/04/19 03:53:43;;;;;;;5.63;3.53;;;7.30;99.90;;;;;;5042791;28;20045;-84
2023/04/19 03:56:08;;;;;;;5.68;3.50;;;7.30;99.90;;;;;;5044438;28;20131;-84
2023/04/19 03:58:34;;;;;;;6.25;4.00;;;7.30;99.90;;;;;;5041757;28;20033;-84
2023/04/19 04:01:00;;;;;;;5.03;3.20;;;7.40;99.90;;;;;;5041717;28;20063;-84
2023/04/19 04:03:26;;;;;;;4.55;3.00;;;7.40;99.90;;;;;;5045888;28;20041;-84
2023/04/19 04:05:52;;;;;;;5.22;3.13;;;7.40;99.90;;;;;;5043972;28;20034;-84
2023/04/19 04:08:17;;;;;;;4.32;2.55;;;7.40;99.90;;;;;;5044867;28;20391;-84
2023/04/19 04:10:43;;;;;;;4.20;2.60;;;7.40;99.90;;;;;;5036748;28;20069;-84
2023/04/19 04:13:09;;;;;;;3.80;2.65;;;7.40;99.90;;;;;;5042833;28;20032;-84
2023/04/19 04:15:34;;;;;;;4.50;2.78;;;7.40;99.90;;;;;;5052041;28;20036;-84
2023/04/19 04:18:00;;;;;;;3.95;2.85;;;7.40;99.90;;;;;;5047102;28;20033;-82
2023/04/19 04:20:26;;;;;;;4.18;2.70;;;7.40;99.90;;;;;;5036492;28;20034;-83
2023/04/19 04:22:52;;;;;;;4.13;2.60;;;7.40;99.90;;;;;;5056033;28;20032;-83
2023/04/19 04:25:18;;;;;;;4.13;2.58;;;7.40;99.90;;;;;;5052101;28;20120;-83
2023/04/19 04:27:44;;;;;;;5.20;3.08;;;7.40;99.90;;;;;;5036528;28;20033;-82
2023/04/19 04:30:11;;;;;;;3.88;2.45;;;7.40;99.90;;;;;;5035648;28;20398;-82
2023/04/19 04:32:37;;;;;;;4.57;3.25;;;7.40;99.90;;;;;;5041222;28;20028;-82
2023/04/19 04:35:04;;;;;;;6.40;4.68;;;7.40;99.90;;;;;;5034699;28;20030;-82
2023/04/19 04:37:34;;;;;;;12.80;9.75;;;7.40;99.90;;;;;;5037716;28;20463;-82
2023/04/19 04:40:00;;;;;;;10.05;7.93;;;7.40;99.90;;;;;;5049890;28;20570;-82
2023/04/19 04:42:26;;;;;;;6.30;4.70;;;7.30;99.90;;;;;;5048751;28;20041;-82
2023/04/19 04:44:56;;;;;;;5.18;3.35;;;7.30;99.90;;;;;;5040928;28;20048;-82
2023/04/19 04:47:22;;;;;;;4.72;2.95;;;7.30;99.90;;;;;;5039615;28;20139;-82
2023/04/19 04:49:48;;;;;;;5.50;3.00;;;7.20;99.90;;;;;;5037813;28;20121;-82
2023/04/19 04:52:14;;;;;;;3.40;2.50;;;7.20;99.90;;;;;;5038670;28;20120;-82
2023/04/19 04:54:40;;;;;;;4.50;2.70;;;7.20;99.90;;;;;;5032148;28;20034;-82
2023/04/19 04:57:05;;;;;;;5.07;2.90;;;7.20;99.90;;;;;;5045536;28;20044;-82
2023/04/19 04:59:31;;;;;;;5.25;3.17;;;7.20;99.90;;;;;;5034534;28;20060;-82
2023/04/19 05:01:57;;;;;;;5.22;3.20;;;7.20;99.90;;;;;;5032481;28;20099;-82
2023/04/19 05:04:23;;;;;;;4.95;3.20;;;7.20;99.90;;;;;;5035731;28;20395;-82
2023/04/19 05:06:49;;;;;;;5.32;3.50;;;7.20;99.90;;;;;;5037855;28;20033;-83
2023/04/19 05:09:14;;;;;;;7.93;4.35;;;7.30;99.90;;;;;;5017118;28;20041;-82
2023/04/19 05:11:40;;;;;;;12.13;6.75;;;7.20;99.90;;;;;;5026961;28;20124;-83
2023/04/19 05:14:06;;;;;;;12.75;7.13;;;7.30;99.90;;;;;;5040708;28;20034;-83
2023/04/19 05:16:32;;;;;;;11.00;7.10;;;7.30;99.90;;;;;;5044156;28;20044;-82
2023/04/19 05:18:58;;;;;;;15.00;10.15;;;7.30;99.90;;;;;;5043140;28;20029;-82
2023/04/19 05:21:23;;;;;;;10.95;8.18;;;7.30;99.90;;;;;;5032487;28;20111;-82
2023/04/19 05:23:52;;;;;;;10.48;8.25;;;7.30;99.90;;;;;;5016850;28;20052;-83
2023/04/19 05:26:18;;;;;;;11.48;9.02;;;7.30;99.90;;;;;;5034963;28;20184;-83
2023/04/19 05:28:44;;;;;;;10.52;8.60;;;7.30;99.90;;;;;;5034375;28;20033;-82
2023/04/19 05:31:11;;;;;;;9.82;7.57;;;7.30;99.90;;;;;;5032411;28;20077;-82
2023/04/19 05:33:49;;;;;;;10.70;6.32;;;7.40;99.90;;;;;;5035387;28;20030;-83
2023/04/19 05:36:17;;;;;;;8.88;5.20;;;7.40;99.90;;;;;;5033739;28;20040;-82
2023/04/19 05:38:44;;;;;;;6.00;4.47;;;7.40;99.90;;;;;;5016908;28;20057;-82
2023/04/19 05:41:10;;;;;;;6.85;4.35;;;7.30;99.90;;;;;;5050049;28;20037;-83
2023/04/19 05:43:36;;;;;;;8.05;4.43;;;7.30;99.90;;;;;;5033496;28;20037;-82
2023/04/19 05:46:02;;;;;;;8.18;5.07;;;7.30;99.90;;;;;;5046876;28;20395;-83
2023/04/19 05:48:27;;;;;;;7.63;4.70;;;7.30;99.90;;;;;;5026173;28;20080;-82
2023/04/19 05:50:55;;;;;;;6.82;4.22;;;7.30;99.90;;;;;;5034137;28;20129;-83
2023/04/19 05:53:20;;;;;;;8.00;4.45;;;7.30;99.90;;;;;;5033980;28;20053;-82
2023/04/19 05:55:48;;;;;;;6.15;4.15;;;7.20;99.90;;;;;;5036741;28;20479;-83
2023/04/19 05:58:14;;;;;;;6.13;3.85;;;7.20;99.90;;;;;;5037914;28;20030;-82
2023/04/19 06:00:40;;;;;;;6.57;4.30;;;7.20;99.90;;;;;;5039373;28;20033;-82
2023/04/19 06:03:06;;;;;;;8.38;5.70;;;7.20;99.90;;;;;;5037411;28;20042;-83
2023/04/19 06:05:32;;;;;;;6.15;3.50;;;7.30;99.90;;;;;;5037084;28;20542;-81
2023/04/19 06:07:58;;;;;;;7.43;4.80;;;7.20;99.90;;;;;;5036800;28;20033;-82
2023/04/19 06:10:24;;;;;;;7.15;4.38;;;7.30;99.90;;;;;;5028999;28;20041;-82
2023/04/19 06:12:50;;;;;;;7.32;4.30;;;7.30;99.90;;;;;;5028566;28;20041;-83
2023/04/19 06:15:16;;;;;;;6.60;4.88;;;7.30;99.90;;;;;;5019666;28;20080;-82
2023/04/19 06:17:42;;;;;;;6.47;4.68;;;7.30;99.90;;;;;;5036709;28;20128;-82
2023/04/19 06:20:08;;;;;;;10.13;4.70;;;7.30;99.90;;;;;;5052832;28;20068;-82
2023/04/19 06:22:40;;;;;;;6.05;4.40;;;7.30;99.90;;;;;;5037249;28;20037;-82
2023/04/19 06:25:06;;;;;;;7.78;4.50;;;7.30;99.90;;;;;;5037795;28;20438;-82
2023/04/19 06:27:32;;;;;;;5.65;3.70;;;7.30;99.90;;;;;;5037284;28;20048;-82
2023/04/19 06:29:59;;;;;;;8.30;4.07;;;7.30;99.90;;;;;;5037891;28;20037;-81
2023/04/19 06:32:25;;;;;;;5.55;3.53;;;7.40;99.90;;;;;;5036293;28;20462;-82
2023/04/19 06:35:03;;;;;;;5.25;3.60;;;7.40;99.90;;;;;;5052914;28;20119;-82
2023/04/19 06:37:29;;;;;;;5.00;3.20;;;7.50;99.90;;;;;;5017457;28;20045;-82
2023/04/19 06:39:55;;;;;;;8.43;4.20;;;7.50;99.90;;;;;;5036323;28;20091;-82
2023/04/19 06:42:31;;;;;;;5.20;3.42;;;7.50;99.90;;;;;;5035648;28;20044;-82
2023/04/19 06:44:57;;;;;;;4.90;3.00;;;7.60;99.90;;;;;;5036852;28;20033;-82
2023/04/19 06:47:23;;;;;;;5.05;3.38;;;7.60;99.90;;;;;;5038227;28;20064;-82
2023/04/19 06:49:52;;;;;;;4.82;3.15;;;7.60;99.90;;;;;;5034906;28;20041;-82
2023/04/19 06:52:18;;;;;;;6.15;4.05;;;7.70;99.90;;;;;;5036736;28;20037;-83
2023/04/19 06:54:50;;;;;;;4.93;3.75;;;7.70;99.90;;;;;;5036308;28;20041;-83
2023/04/19 06:57:17;;;;;;;6.53;4.50;;;7.70;99.90;;;;;;5017787;28;20084;-82
2023/04/19 06:59:43;;;;;;;7.40;4.28;;;7.70;99.90;;;;;;5034500;28;20076;-82
2023/04/19 07:02:09;;;;;;;8.73;4.05;;;7.80;99.90;;;;;;5035270;28;20105;-82
2023/04/19 07:04:35;;;;;;;6.50;4.00;;;7.70;99.90;;;;;;5017679;28;20144;-82
2023/04/19 07:07:02;;;;;;;6.70;4.68;;;7.80;99.90;;;;;;5053391;28;20379;-82
2023/04/19 07:09:28;;;;;;;8.18;4.22;;;7.80;99.90;;;;;;5045372;28;20068;-81
2023/04/19 07:11:54;;;;;;;6.10;3.60;;;7.80;99.90;;;;;;5033992;28;20065;-82
2023/04/19 07:14:26;;;;;;;6.43;4.15;;;7.80;99.90;;;;;;5034103;28;20447;-82
2023/04/19 07:16:52;;;;;;;10.25;4.50;;;7.80;99.90;;;;;;5039190;28;20038;-81
2023/04/19 07:19:19;;;;;;;7.03;4.32;;;7.80;99.90;;;;;;5017581;28;20057;-82
2023/04/19 07:21:45;;;;;;;7.05;5.03;;;7.90;99.90;;;;;;5034884;28;20068;-82
2023/04/19 07:24:10;;;;;;;8.88;5.38;;;7.90;99.90;;;;;;5033730;28;20387;-82
2023/04/19 07:26:36;;;;;;;8.80;5.90;;;7.80;99.90;;;;;;5034055;28;20091;-82
2023/04/19 07:29:18;;;;;;;8.95;5.70;;;7.90;99.90;;;;;;5035779;28;20033;-82
2023/04/19 07:31:44;;;;;;;10.48;5.68;;;7.90;99.90;;;;;;5035200;28;20061;-82
2023/04/19 07:34:12;;;;;;;8.88;6.13;;;7.90;99.90;;;;;;5017167;28;20076;-82
2023/04/19 07:36:40;;;;;;;7.30;4.82;;;7.90;99.90;;;;;;5016858;28;20042;-82
2023/04/19 07:39:06;;;;;;;8.40;5.63;;;7.90;99.90;;;;;;5033633;28;20029;-82
2023/04/19 07:41:32;;;;;;;9.40;5.57;;;7.90;99.90;;;;;;5034091;28;20368;-82
2023/04/19 07:43:58;;;;;;;9.30;5.47;;;7.90;99.90;;;;;;5035330;28;20064;-82
2023/04/19 07:46:23;;;;;;;9.15;5.47;;;8.00;99.90;;;;;;5037204;28;20052;-82
2023/04/19 07:48:49;;;;;;;10.90;7.22;;;8.00;99.90;;;;;;5042414;28;20048;-81
2023/04/19 07:51:16;;;;;;;9.98;5.85;;;8.00;99.90;;;;;;5043519;28;20100;-82
2023/04/19 07:53:42;;;;;;;10.40;6.55;;;8.00;99.90;;;;;;5035179;28;20094;-82
2023/04/19 07:56:10;;;;;;;9.13;6.38;;;8.00;99.90;;;;;;5033972;28;20098;-82
2023/04/19 07:58:36;;;;;;;8.85;5.65;;;8.00;99.90;;;;;;5051024;28;20033;-81
2023/04/19 08:01:04;;;;;;;10.60;6.68;;;8.00;99.90;;;;;;5035610;28;20034;-81
2023/04/19 08:03:30;;;;;;;9.70;6.05;;;8.00;99.90;;;;;;5035075;28;20175;-81
2023/04/19 08:05:56;;;;;;;8.80;5.90;;;8.00;99.90;;;;;;5043656;28;20478;-81
2023/04/19 08:08:23;;;;;;;12.02;7.70;;;8.00;99.90;;;;;;5054181;28;20111;-81
2023/04/19 08:10:55;;;;;;;8.25;5.78;;;8.10;99.90;;;;;;5046089;28;20048;-82
2023/04/19 08:13:20;;;;;;;;;;;8.10;99.90;;;;;;5033358;28;20034;-82
2023/04/19 08:15:46;;;;;;;11.13;6.63;;;8.10;99.90;;;;;;5046646;28;20389;-82
2023/04/19 08:18:12;;;;;;;9.95;5.70;;;8.10;99.90;;;;;;5038866;28;20029;-82
2023/04/19 08:20:41;;;;;;;11.85;6.82;;;8.10;99.90;;;;;;5032353;28;20029;-82
2023/04/19 08:23:07;;;;;;;9.80;6.20;;;8.20;99.90;;;;;;5033537;28;20025;-82
2023/04/19 08:25:33;;;;;;;8.95;6.38;;;8.20;99.90;;;;;;5033948;28;20033;-81
2023/04/19 08:27:59;;;;;;;9.13;6.05;;;8.20;99.90;;;;;;5040007;28;20029;-82
2023/04/19 08:30:25;;;;;;;7.75;5.20;;;8.20;99.90;;;;;;5025151;28;20092;-82
2023/04/19 08:32:51;;;;;;;10.88;5.75;;;8.30;99.90;;;;;;5032378;28;20060;-82
2023/04/19 08:35:16;;;;;;;10.88;5.57;;;8.30;99.90;;;;;;5038386;28;20514;-82
2023/04/19 08:37:46;;;;;;;8.00;5.18;;;8.30;99.90;;;;;;5032793;28;20052;-82
2023/04/19 08:40:13;;;;;;;10.35;6.65;;;8.30;99.90;;;;;;5040394;28;20036;-82
2023/04/19 08:42:39;;;;;;;9.65;6.13;;;8.40;99.90;;;;;;5035169;28;20219;-82
2023/04/19 08:45:06;;;;;;;10.10;6.70;;;8.40;99.90;;;;;;5038870;28;20057;-82
2023/04/19 08:47:34;;;;;;;9.20;6.30;;;8.40;99.90;;;;;;5032095;28;20038;-83
2023/04/19 08:50:05;;;;;;;9.38;5.93;;;8.40;99.90;;;;;;5033334;28;20033;-82
2023/04/19 08:52:33;;;;;;;9.00;5.57;;;8.50;99.90;;;;;;5032250;28;20103;-83
2023/04/19 08:55:07;;;;;;;8.50;4.97;;;8.50;99.90;;;;;;5038082;28;20072;-82
2023/04/19 08:57:35;;;;;;;9.25;5.95;;;8.60;99.90;;;;;;5052623;28;20029;-82
2023/04/19 09:00:09;;;;;;;10.75;6.22;;;8.60;99.90;;;;;;5051590;28;20029;-82
2023/04/19 09:02:49;;;;;;;10.23;6.50;;;8.70;99.90;;;;;;5017748;28;20037;-82
2023/04/19 09:05:29;;;;;;;9.35;6.10;;;8.70;99.90;;;;;;5043307;28;20067;-82
2023/04/19 09:08:29;;;;;;;8.85;6.18;;;8.80;99.90;;;;;;5048929;28;20043;-82
2023/04/19 09:11:02;;;;;;;8.95;5.75;;;8.80;99.90;;;;;;5048464;28;20398;-82
2023/04/19 09:13:29;;;;;;;10.48;6.20;;;8.70;99.90;;;;;;5033969;28;20053;-82
2023/04/19 09:16:01;;;;;;;10.02;5.80;;;8.80;99.90;;;;;;5044408;28;20071;-83
2023/04/19 09:18:26;;;;;;;11.48;7.57;;;8.70;99.90;;;;;;5031825;28;20026;-82
2023/04/19 09:20:56;;;;;;;17.65;11.68;;;8.80;99.90;;;;;;5039517;28;20036;-83
2023/04/19 09:23:24;;;;;;;12.70;10.07;;;8.80;99.90;;;;;;5053252;28;20021;-82
2023/04/19 09:25:52;;;;;;;11.32;8.32;;;8.70;99.90;;;;;;5052783;28;20480;-82
2023/04/19 09:28:21;;;;;;;8.52;5.93;;;8.80;99.90;;;;;;5054897;28;20083;-83
2023/04/19 09:30:54;;;;;;;7.45;4.88;;;8.80;99.90;;;;;;5055535;28;20036;-83
2023/04/19 09:33:38;;;;;;;8.18;4.97;;;8.80;99.90;;;;;;5056183;28;20037;-83
2023/04/19 09:36:05;;;;;;;20.48;12.75;;;8.80;99.90;;;;;;5056869;28;20060;-83
2023/04/19 09:38:48;;;;;;;18.38;11.77;;;8.80;99.90;;;;;;5055324;28;20389;-82
2023/04/19 09:41:14;;;;;;;14.65;10.07;;;8.90;99.90;;;;;;5055812;28;20029;-82
2023/04/19 09:43:40;;;;;;;12.57;9.88;;;8.90;99.90;;;;;;5039344;28;20487;-82
2023/04/19 09:46:06;;;;;;;12.32;9.05;;;8.90;99.90;;;;;;5035589;28;20049;-82
2023/04/19 09:48:31;;;;;;;9.68;6.35;;;9.00;99.90;;;;;;5018943;28;20044;-83
2023/04/19 09:50:59;;;;;;;8.98;6.20;;;9.00;99.90;;;;;;5036817;28;20519;-83
2023/04/19 09:53:27;;;;;;;12.45;9.15;;;9.10;99.90;;;;;;5036433;28;20021;-82
2023/04/19 09:55:53;;;;;;;9.07;6.07;;;9.20;99.90;;;;;;5035454;28;20148;-83
2023/04/19 09:58:20;;;;;;;9.90;6.32;;;9.20;99.90;;;;;;5036234;28;20033;-83
2023/04/19 10:00:47;;;;;;;9.02;5.95;;;9.30;99.90;;;;;;5019579;28;20029;-83
2023/04/19 10:03:17;;;;;;;10.90;6.93;;;9.40;99.90;;;;;;5035212;28;20033;-82
2023/04/19 10:05:44;;;;;;;11.43;6.10;;;9.50;99.90;;;;;;5035235;28;20033;-83
2023/04/19 10:08:11;;;;;;;9.25;6.68;;;9.60;99.90;;;;;;5035358;28;20234;-83
2023/04/19 10:10:38;;;;;;;9.10;6.35;;;9.70;99.90;;;;;;5036301;28;20563;-83
2023/04/19 10:13:09;;;;;;;7.82;5.43;;;9.70;99.90;;;;;;5019713;28;20041;-82
2023/04/19 10:15:37;;;;;;;7.40;4.90;;;9.70;99.90;;;;;;5035632;28;20559;-83
2023/04/19 10:18:16;;;;;;;6.28;4.18;;;9.80;99.90;;;;;;5035040;28;20076;-83
2023/04/19 10:20:48;;;;;;;8.10;5.55;;;10.00;99.90;;;;;;5034841;28;20037;-83
2023/04/19 10:23:15;;;;;;;9.68;6.25;;;10.10;99.90;;;;;;5034605;28;20397;-83
2023/04/19 10:25:45;;;;;;;7.93;5.00;;;10.30;99.90;;;;;;5035053;28;20026;-82
2023/04/19 10:28:11;;;;;;;6.70;4.77;;;10.40;99.90;;;;;;5034818;28;20441;-82
2023/04/19 10:31:01;;;;;;;8.70;5.78;;;10.60;99.90;;;;;;5018470;28;20074;-83
2023/04/19 10:33:34;;;;;;;10.75;6.20;;;10.70;99.90;;;;;;5034661;28;20499;-83
2023/04/19 10:36:00;;;;;;;10.32;5.72;;;10.60;99.90;;;;;;5018439;28;20080;-83
2023/04/19 10:38:51;;;;;;;8.20;5.47;;;10.70;99.90;;;;;;5035430;28;20034;-82
2023/04/19 10:41:20;;;;;;;11.82;6.95;;;10.60;99.90;;;;;;5017759;28;20076;-83
2023/04/19 10:43:56;;;;;;;11.07;6.22;;;10.70;99.90;;;;;;5018325;28;20045;-83
2023/04/19 10:46:24;;;;;;;6.65;4.25;;;10.70;99.90;;;;;;5035275;28;20088;-82
2023/04/19 10:48:57;;;;;;;7.93;4.53;;;10.70;99.90;;;;;;5034386;28;20073;-82
2023/04/19 10:51:27;;;;;;;7.03;4.88;;;10.70;99.90;;;;;;5034843;28;20033;-83
2023/04/19 10:53:54;;;;;;;10.18;5.72;;;10.60;99.90;;;;;;5034225;28;20569;-81
2023/04/19 10:56:57;;;;;;;7.78;5.20;;;10.60;99.90;;;;;;5035524;28;20050;-83
2023/04/19 10:59:23;;;;;;;7.40;5.10;;;10.60;99.90;;;;;;5031081;28;20080;-82
2023/04/19 11:01:51;;;;;;;8.55;5.00;;;10.50;99.90;;;;;;5018372;28;20395;-82
2023/04/19 11:04:18;;;;;;;7.45;4.80;;;10.50;99.90;;;;;;5035686;28;20029;-83
2023/04/19 11:06:51;;;;;;;6.03;3.72;;;10.50;99.90;;;;;;5035799;28;20041;-83
2023/04/19 11:09:24;;;;;;;4.68;3.35;;;10.50;99.90;;;;;;5035111;28;20036;-82
2023/04/19 11:11:56;;;;;;;5.38;3.55;;;10.40;99.90;;;;;;5035039;28;20127;-82
2023/04/19 11:14:24;;;;;;;6.05;3.53;;;10.40;99.90;;;;;;5034826;28;20029;-82
2023/04/19 11:16:49;;;;;;;4.47;2.83;;;10.40;99.90;;;;;;5047414;28;20057;-82
2023/04/19 11:19:19;;;;;;;4.32;2.85;;;10.40;99.90;;;;;;5033493;28;20510;-82
2023/04/19 11:21:45;;;;;;;12.80;8.00;;;10.40;99.90;;;;;;5041049;28;20033;-82
2023/04/19 11:24:11;;;;;;;10.85;7.57;;;10.40;99.90;;;;;;5050995;28;20379;-81
2023/04/19 11:26:37;;;;;;;6.53;4.35;;;10.40;99.90;;;;;;5039991;28;20045;-82
2023/04/19 11:29:05;;;;;;;6.57;4.30;;;10.40;99.90;;;;;;5035043;28;20033;-82
2023/04/19 11:31:35;;;;;;;7.70;4.18;;;10.30;99.90;;;;;;5033796;28;20067;-83
2023/04/19 11:34:02;;;;;;;5.18;4.00;;;10.30;99.90;;;;;;5034587;28;20030;-83
2023/04/19 11:36:28;;;;;;;5.68;3.80;;;10.30;99.90;;;;;;5016874;28;20136;-83
2023/04/19 11:38:54;;;;;;;5.60;4.18;;;10.30;99.90;;;;;;5034918;28;20053;-82
2023/04/19 11:41:19;;;;;;;6.47;4.45;;;10.20;99.90;;;;;;5033847;28;20494;-83
2023/04/19 11:43:47;;;;;;;5.47;3.75;;;10.30;99.90;;;;;;5046796;28;20491;-82
2023/04/19 11:46:13;;;;;;;5.50;3.53;;;10.30;99.90;;;;;;5037601;28;20033;-82
2023/04/19 11:48:51;;;;;;;4.32;2.78;;;10.20;99.90;;;;;;5046061;28;20041;-82
2023/04/19 11:51:16;;;;;;;3.20;2.00;;;10.30;99.90;;;;;;5047711;28;20030;-82
2023/04/19 11:53:42;;;;;;;4.07;2.50;;;10.20;99.90;;;;;;5034156;28;20095;-83
2023/04/19 11:56:09;;;;;;;3.63;2.22;;;10.20;99.90;;;;;;5050962;28;20044;-84
2023/04/19 11:58:38;;;;;;;3.70;2.55;;;10.20;99.90;;;;;;5054512;28;20044;-84
2023/04/19 12:01:06;;;;;;;3.38;2.28;;;10.20;99.90;;;;;;5052572;28;20029;-84
2023/04/19 12:03:52;;;;;;;4.03;2.53;;;10.20;99.90;;;;;;5053062;28;20509;-85
2023/04/19 12:06:25;;;;;;;3.47;2.10;;;10.20;99.90;;;;;;5054367;28;20489;-86
2023/04/19 12:08:53;;;;;;;2.78;1.80;;;10.10;99.90;;;;;;5054023;28;20179;-85
2023/04/19 12:11:43;;;;;;;4.40;2.58;;;10.10;99.90;;;;;;5053272;28;20483;-86
2023/04/19 12:14:22;;;;;;;3.20;2.03;;;10.10;99.90;;;;;;5037082;28;20065;-87
2023/04/19 12:34:55;;;;;;;3.15;1.90;;;10.00;99.90;;;;;;4992265;28;20040;-86
2023/04/19 12:48:21;;;;;;;7.68;4.68;;;9.80;99.90;;;;;;4953991;29;20066;-85
2023/04/19 13:04:53;;;;;;;10.40;7.38;;;9.60;99.90;;;;;;4898723;29;20149;-87
2023/04/19 13:08:45;;;;;;;8.10;5.95;;;9.60;99.90;;;;;;4960958;28;20044;-86
2023/04/19 13:14:53;;;;;;;7.22;4.47;;;9.60;99.90;;;;;;5015261;28;20069;-86
2023/04/19 13:17:27;;;;;;;7.32;4.93;;;9.60;99.90;;;;;;5014588;28;20034;-86
2023/04/19 13:23:47;;;;;;;7.53;4.85;;;9.60;99.90;;;;;;5021407;28;20088;-85
2023/04/19 13:33:53;;;;;;;7.10;4.40;;;9.50;99.90;;;;;;4948095;28;20077;-86
2023/04/19 13:40:32;;;;;;;7.03;4.18;;;9.50;99.90;;;;;;4898593;29;20050;-85
2023/04/19 13:43:47;;;;;;;6.10;4.15;;;9.40;99.90;;;;;;4825092;29;20094;-86
2023/04/19 13:46:40;;;;;;;9.80;5.55;;;9.50;99.90;;;;;;4886146;29;20123;-86
2023/04/19 13:53:27;;;;;;;30.58;14.57;;;9.50;99.90;;;;;;4891691;29;20055;-87
2023/04/19 13:56:25;;;;;;;27.05;15.40;;;9.60;99.90;;;;;;4882296;29;20040;-86
2023/04/19 14:15:37;;;;;;;8.55;4.85;;;9.50;99.90;;;;;;4925343;29;20036;-86
2023/04/19 14:18:12;;;;;;;8.38;5.38;;;9.50;99.90;;;;;;4961969;23;20051;-77
2023/04/19 14:20:38;;;;;;;14.05;6.78;;;9.40;99.90;;;;;;5053808;28;20123;-77
2023/04/19 14:23:04;;;;;;;7.68;4.35;;;9.30;99.90;;;;;;5047235;28;20041;-77